createdAt,value
2019-05-23T00:01:11.240Z,99.90
2019-05-23T00:03:46.326Z,99.90
2019-05-23T00:06:18.410Z,99.90
2019-05-23T00:08:49.933Z,99.90
2019-05-23T00:11:40.018Z,99.90
2019-05-23T00:14:22.527Z,99.90
2019-05-23T00:16:55.577Z,99.90
2019-05-23T00:19:26.772Z,99.90
2019-05-23T00:21:56.627Z,99.90
2019-05-23T00:24:27.753Z,99.90
2019-05-23T00:26:59.929Z,99.90
2019-05-23T00:29:30.005Z,99.90
2019-05-23T00:32:05.279Z,99.90
2019-05-23T00:34:34.895Z,99.90
2019-05-23T00:37:06.914Z,99.90
2019-05-23T00:39:37.487Z,99.90
2019-05-23T00:42:07.944Z,99.90
2019-05-23T00:44:37.952Z,99.90
2019-05-23T00:47:07.693Z,99.90
2019-05-23T00:49:37.302Z,99.90
2019-05-23T00:52:08.567Z,99.90
2019-05-23T00:54:38.097Z,99.90
2019-05-23T00:57:09.806Z,99.90
2019-05-23T00:59:39.741Z,99.90
2019-05-23T01:02:11.189Z,99.90
2019-05-23T01:04:42.795Z,99.90
2019-05-23T01:07:12.699Z,99.90
2019-05-23T01:09:42.870Z,99.90
2019-05-23T01:12:12.794Z,99.90
2019-05-23T01:14:42.600Z,99.90
2019-05-23T01:17:12.227Z,99.90
2019-05-23T01:19:42.529Z,99.90
2019-05-23T01:22:14.153Z,99.90
2019-05-23T01:24:48.530Z,99.90
2019-05-23T01:27:18.752Z,99.90
2019-05-23T01:29:50.358Z,99.90
2019-05-23T01:32:38.977Z,99.90
2019-05-23T01:35:09.965Z,99.90
2019-05-23T01:37:41.444Z,99.90
2019-05-23T01:40:13.039Z,99.90
2019-05-23T01:42:44.114Z,99.90
2019-05-23T01:45:15.217Z,99.90
2019-05-23T01:47:47.631Z,99.90
2019-05-23T01:50:20.884Z,99.90
2019-05-23T01:52:51.679Z,99.90
2019-05-23T01:55:22.075Z,99.90
2019-05-23T01:57:52.509Z,99.90
2019-05-23T02:00:24.835Z,99.90
2019-05-23T02:02:55.916Z,99.90
2019-05-23T02:05:25.748Z,99.90
2019-05-23T02:07:56.729Z,99.90
2019-05-23T02:10:27.291Z,99.90
2019-05-23T02:12:57.822Z,99.90
2019-05-23T02:15:28.704Z,99.90
2019-05-23T02:17:58.531Z,99.90
2019-05-23T02:20:29.393Z,99.90
2019-05-23T02:22:58.875Z,99.90
2019-05-23T02:25:29.241Z,99.90
2019-05-23T02:27:59.469Z,99.90
2019-05-23T02:30:36.553Z,99.90
2019-05-23T02:33:00.139Z,99.90
2019-05-23T02:35:29.760Z,99.90
2019-05-23T02:38:14.704Z,99.90
2019-05-23T02:40:49.274Z,99.90
2019-05-23T02:43:20.837Z,99.90
2019-05-23T02:45:53.754Z,99.90
2019-05-23T02:48:26.047Z,99.90
2019-05-23T02:50:59.986Z,99.90
2019-05-23T02:53:35.518Z,99.90
2019-05-23T02:56:09.214Z,99.90
2019-05-23T02:58:59.623Z,99.90
2019-05-23T03:01:48.406Z,99.90
2019-05-23T03:04:26.841Z,99.90
2019-05-23T03:06:56.424Z,99.90
2019-05-23T03:09:29.961Z,99.90
2019-05-23T03:12:03.966Z,99.90
2019-05-23T03:14:36.506Z,99.90
2019-05-23T03:17:10.367Z,99.90
2019-05-23T03:19:53.018Z,99.90
2019-05-23T03:22:34.648Z,99.90
2019-05-23T03:25:08.919Z,99.90
2019-05-23T03:27:43.945Z,99.90
2019-05-23T03:30:19.389Z,99.90
2019-05-23T03:32:51.282Z,99.90
2019-05-23T03:35:25.713Z,99.90
2019-05-23T03:37:55.288Z,99.90
2019-05-23T03:40:25.041Z,99.90
2019-05-23T03:42:54.749Z,99.90
2019-05-23T03:45:26.624Z,99.90
2019-05-23T03:47:56.253Z,99.90
2019-05-23T03:50:26.112Z,99.90
2019-05-23T03:52:56.929Z,99.90
2019-05-23T03:55:28.706Z,99.90
2019-05-23T03:58:00.110Z,99.90
2019-05-23T04:00:35.861Z,99.90
2019-05-23T04:03:06.102Z,99.90
2019-05-23T04:05:37.565Z,99.90
2019-05-23T04:08:09.411Z,99.90
2019-05-23T04:10:39.553Z,99.90
2019-05-23T04:13:09.706Z,99.90
2019-05-23T04:15:39.363Z,99.90
2019-05-23T04:18:08.805Z,99.90
2019-05-23T04:20:38.846Z,99.90
2019-05-23T04:23:09.113Z,99.90
2019-05-23T04:25:38.442Z,99.90
2019-05-23T04:28:07.907Z,99.90
2019-05-23T04:30:37.615Z,99.90
2019-05-23T04:33:07.570Z,99.90
2019-05-23T04:35:38.020Z,99.90
2019-05-23T04:38:08.280Z,99.90
2019-05-23T04:40:41.244Z,99.90
2019-05-23T04:43:10.504Z,99.90
2019-05-23T04:45:40.222Z,99.90
2019-05-23T04:48:09.754Z,99.90
2019-05-23T04:50:39.631Z,99.90
2019-05-23T04:53:09.977Z,99.90
2019-05-23T04:55:39.509Z,99.90
2019-05-23T04:58:10.042Z,99.90
2019-05-23T05:00:39.557Z,99.90
2019-05-23T05:03:10.112Z,99.90
2019-05-23T05:05:40.162Z,99.90
2019-05-23T05:08:09.705Z,99.90
2019-05-23T05:10:39.913Z,99.90
2019-05-23T05:13:09.557Z,99.90
2019-05-23T05:15:38.953Z,99.90
2019-05-23T05:18:08.688Z,99.90
2019-05-23T05:20:38.293Z,99.90
2019-05-23T05:23:07.682Z,99.90
2019-05-23T05:25:36.948Z,99.90
2019-05-23T05:28:06.932Z,99.90
2019-05-23T05:30:36.170Z,99.90
2019-05-23T05:33:05.658Z,99.90
2019-05-23T05:35:35.706Z,99.90
2019-05-23T05:38:05.041Z,99.90
2019-05-23T05:40:34.990Z,99.90
2019-05-23T05:43:04.617Z,99.90
2019-05-23T05:45:34.025Z,99.90
2019-05-23T05:48:04.045Z,99.90
2019-05-23T05:50:34.360Z,99.90
2019-05-23T05:53:05.231Z,98.70
2019-05-23T05:55:34.894Z,98.50
2019-05-23T05:58:05.229Z,98.10
2019-05-23T06:00:53.565Z,94.30
2019-05-23T06:03:23.222Z,97.00
2019-05-23T06:06:08.841Z,95.40
2019-05-23T06:08:39.911Z,91.80
2019-05-23T06:11:09.587Z,95.50
2019-05-23T06:13:39.171Z,89.80
2019-05-23T06:16:09.008Z,89.40
2019-05-23T06:18:38.296Z,89.50
2019-05-23T06:21:07.756Z,88.90
2019-05-23T06:23:37.596Z,89.00
2019-05-23T06:26:06.844Z,84.60
2019-05-23T06:28:37.577Z,88.30
2019-05-23T06:31:07.650Z,85.60
2019-05-23T06:33:37.554Z,85.40
2019-05-23T06:36:07.845Z,86.70
2019-05-23T06:38:37.761Z,83.80
2019-05-23T06:41:07.996Z,85.90
2019-05-23T06:43:39.161Z,84.30
2019-05-23T06:46:08.478Z,85.50
2019-05-23T06:48:45.412Z,81.50
2019-05-23T06:51:31.012Z,79.70
2019-05-23T06:54:01.170Z,83.40
2019-05-23T06:56:31.100Z,85.70
2019-05-23T06:59:00.666Z,84.40
2019-05-23T07:01:30.190Z,83.90
2019-05-23T07:04:00.768Z,83.30
2019-05-23T07:06:30.237Z,78.80
2019-05-23T07:09:00.166Z,80.20
2019-05-23T07:11:29.351Z,80.60
2019-05-23T07:13:58.731Z,80.00
2019-05-23T07:16:27.993Z,79.40
2019-05-23T07:18:57.271Z,80.80
2019-05-23T07:21:28.196Z,79.70
2019-05-23T07:23:57.461Z,78.90
2019-05-23T07:26:27.298Z,79.90
2019-05-23T07:28:56.924Z,78.60
2019-05-23T07:31:26.194Z,80.00
2019-05-23T07:34:01.611Z,80.60
2019-05-23T07:36:27.028Z,77.50
2019-05-23T07:38:56.571Z,77.20
2019-05-23T07:41:25.824Z,78.00
2019-05-23T07:43:55.825Z,75.70
2019-05-23T07:46:25.768Z,76.40
2019-05-23T07:48:55.112Z,76.40
2019-05-23T07:51:24.406Z,75.20
2019-05-23T07:54:07.469Z,76.20
2019-05-23T07:56:37.451Z,74.60
2019-05-23T07:59:07.211Z,72.90
2019-05-23T08:01:38.760Z,71.60
2019-05-23T08:04:20.351Z,72.00
2019-05-23T08:06:39.826Z,71.60
2019-05-23T08:09:11.190Z,71.90
2019-05-23T08:11:40.852Z,70.00
2019-05-23T08:14:12.180Z,70.20
2019-05-23T08:16:41.622Z,68.30
2019-05-23T08:19:11.328Z,68.90
2019-05-23T08:21:40.551Z,67.40
2019-05-23T08:24:11.332Z,67.20
2019-05-23T08:26:41.020Z,66.10
2019-05-23T08:29:27.027Z,63.70
2019-05-23T08:31:42.279Z,64.50
2019-05-23T08:34:11.884Z,65.90
2019-05-23T08:36:41.921Z,64.10
2019-05-23T08:39:11.337Z,65.20
2019-05-23T08:41:41.395Z,64.00
2019-05-23T08:44:11.584Z,63.10
2019-05-23T08:46:41.472Z,60.70
2019-05-23T08:49:11.131Z,58.70
2019-05-23T08:51:40.681Z,58.20
2019-05-23T08:54:10.222Z,58.50
2019-05-23T08:56:39.868Z,56.40
2019-05-23T08:59:10.764Z,58.90
2019-05-23T09:01:39.961Z,57.80
2019-05-23T09:04:10.353Z,56.40
2019-05-23T09:06:40.151Z,57.00
2019-05-23T09:09:28.405Z,56.70
2019-05-23T09:11:42.251Z,56.10
2019-05-23T09:14:11.442Z,55.20
2019-05-23T09:16:41.057Z,59.80
2019-05-23T09:19:10.415Z,55.40
2019-05-23T09:21:40.072Z,53.80
2019-05-23T09:24:09.920Z,52.90
2019-05-23T09:26:39.627Z,50.20
2019-05-23T09:29:09.760Z,52.50
2019-05-23T09:31:40.026Z,51.60
2019-05-23T09:34:09.380Z,50.80
2019-05-23T09:36:38.623Z,50.10
2019-05-23T09:39:09.796Z,50.10
2019-05-23T09:41:39.342Z,49.20
2019-05-23T09:44:09.270Z,50.20
2019-05-23T09:46:38.510Z,48.70
2019-05-23T09:49:11.134Z,50.40
2019-05-23T09:51:38.794Z,50.20
2019-05-23T09:54:08.149Z,47.00
2019-05-23T09:56:38.932Z,49.10
2019-05-23T09:59:08.444Z,49.10
2019-05-23T10:01:37.722Z,49.80
2019-05-23T10:04:08.655Z,49.20
2019-05-23T10:06:37.912Z,50.70
2019-05-23T10:09:08.915Z,48.60
2019-05-23T10:11:38.117Z,46.80
2019-05-23T10:14:12.677Z,46.50
2019-05-23T10:16:42.263Z,45.50
2019-05-23T10:19:11.598Z,43.00
2019-05-23T10:21:40.859Z,38.00
2019-05-23T10:24:11.382Z,38.70
2019-05-23T10:26:40.664Z,39.20
2019-05-23T10:29:09.866Z,42.40
2019-05-23T10:31:39.224Z,41.60
2019-05-23T10:34:08.480Z,42.50
2019-05-23T10:36:38.136Z,37.40
2019-05-23T10:39:10.434Z,35.10
2019-05-23T10:41:39.690Z,35.60
2019-05-23T10:44:09.089Z,37.40
2019-05-23T10:46:38.738Z,38.80
2019-05-23T10:49:08.601Z,38.00
2019-05-23T10:51:37.793Z,34.40
2019-05-23T10:54:07.086Z,35.40
2019-05-23T10:56:36.424Z,32.30
2019-05-23T10:59:06.400Z,29.50
2019-05-23T11:01:36.084Z,30.60
2019-05-23T11:04:06.244Z,31.40
2019-05-23T11:06:36.555Z,33.80
2019-05-23T11:09:09.298Z,34.20
2019-05-23T11:11:38.738Z,33.30
2019-05-23T11:14:09.262Z,35.40
2019-05-23T11:16:38.949Z,33.10
2019-05-23T11:19:09.824Z,31.70
2019-05-23T11:21:39.281Z,31.00
2019-05-23T11:24:10.638Z,32.70
2019-05-23T11:26:40.345Z,30.90
2019-05-23T11:29:10.376Z,27.40
2019-05-23T11:31:39.730Z,28.00
2019-05-23T11:34:09.296Z,29.60
2019-05-23T11:36:38.552Z,25.60
2019-05-23T11:39:09.742Z,25.20
2019-05-23T11:41:39.875Z,25.00
2019-05-23T11:44:09.241Z,26.80
2019-05-23T11:46:39.151Z,25.80
2019-05-23T11:49:09.114Z,25.60
2019-05-23T11:51:41.711Z,25.50
2019-05-23T11:54:11.392Z,24.70
2019-05-23T11:56:41.571Z,26.70
2019-05-23T11:59:10.849Z,23.70
2019-05-23T12:01:49.839Z,24.50
2019-05-23T12:04:20.937Z,24.40
2019-05-23T12:07:00.132Z,27.10
2019-05-23T12:09:29.902Z,24.70
2019-05-23T12:11:59.356Z,24.80
2019-05-23T12:14:28.717Z,23.20
2019-05-23T12:16:58.510Z,23.50
2019-05-23T12:19:28.084Z,23.60
2019-05-23T12:21:57.601Z,24.60
2019-05-23T12:24:26.934Z,23.80
2019-05-23T12:26:56.334Z,23.30
2019-05-23T12:29:25.559Z,24.70
2019-05-23T12:31:54.969Z,25.80
2019-05-23T12:34:24.239Z,24.20
2019-05-23T12:37:14.314Z,24.00
2019-05-23T12:39:24.515Z,21.60
2019-05-23T12:41:54.237Z,25.00
2019-05-23T12:44:23.907Z,23.60
2019-05-23T12:46:53.513Z,26.10
2019-05-23T12:49:54.005Z,26.60
2019-05-23T12:52:24.025Z,26.50
2019-05-23T12:54:53.344Z,26.40
2019-05-23T12:57:22.886Z,25.00
2019-05-23T12:59:52.458Z,25.50
2019-05-23T13:02:25.316Z,24.80
2019-05-23T13:04:54.824Z,26.50
2019-05-23T13:07:35.613Z,24.90
2019-05-23T13:09:55.730Z,23.90
2019-05-23T13:12:25.209Z,25.70
2019-05-23T13:14:58.479Z,24.00
2019-05-23T13:17:25.375Z,23.50
2019-05-23T13:19:54.654Z,26.70
2019-05-23T13:22:23.828Z,22.50
2019-05-23T13:24:53.595Z,25.20
2019-05-23T13:27:23.465Z,25.40
2019-05-23T13:29:52.839Z,24.30
2019-05-23T13:32:22.175Z,20.70
2019-05-23T13:34:51.461Z,23.30
2019-05-23T13:37:21.301Z,24.00
2019-05-23T13:39:50.537Z,23.70
2019-05-23T13:42:19.942Z,22.50
2019-05-23T13:44:50.052Z,21.50
2019-05-23T13:47:19.508Z,23.10
2019-05-23T13:49:48.786Z,24.60
2019-05-23T13:52:18.148Z,24.00
2019-05-23T13:54:47.743Z,23.20
2019-05-23T13:57:17.106Z,22.50
2019-05-23T13:59:46.527Z,24.40
2019-05-23T14:02:15.872Z,23.00
2019-05-23T14:04:45.680Z,23.40
2019-05-23T14:07:16.827Z,25.20
2019-05-23T14:09:46.317Z,24.60
2019-05-23T14:12:21.174Z,22.70
2019-05-23T14:14:46.974Z,24.70
2019-05-23T14:17:22.699Z,24.40
2019-05-23T14:19:51.961Z,25.60
2019-05-23T14:22:22.191Z,24.70
2019-05-23T14:24:51.692Z,22.60
2019-05-23T14:27:36.156Z,25.30
2019-05-23T14:30:14.041Z,24.20
2019-05-23T14:32:55.911Z,23.90
2019-05-23T14:35:29.031Z,21.90
2019-05-23T14:38:00.388Z,21.80
2019-05-23T14:40:29.760Z,22.20
2019-05-23T14:43:10.117Z,18.60
2019-05-23T14:45:52.058Z,20.00
2019-05-23T14:48:37.565Z,20.00
2019-05-23T14:51:22.170Z,18.60
2019-05-23T14:53:54.857Z,18.80
2019-05-23T14:56:26.072Z,18.50
2019-05-23T14:58:55.263Z,18.90
2019-05-23T15:01:26.486Z,18.60
2019-05-23T15:03:56.487Z,18.70
2019-05-23T15:06:26.017Z,18.60
2019-05-23T15:08:55.257Z,18.50
2019-05-23T15:11:25.162Z,18.00
2019-05-23T15:13:55.390Z,17.40
2019-05-23T15:16:25.049Z,17.10
2019-05-23T15:18:54.388Z,18.30
2019-05-23T15:21:23.649Z,17.00
2019-05-23T15:23:52.921Z,18.30
2019-05-23T15:26:23.664Z,18.40
2019-05-23T15:28:53.159Z,16.50
2019-05-23T15:31:23.098Z,16.40
2019-05-23T15:33:52.451Z,17.30
2019-05-23T15:36:21.771Z,16.60
2019-05-23T15:39:07.639Z,16.70
2019-05-23T15:41:22.075Z,16.80
2019-05-23T15:43:51.346Z,15.10
2019-05-23T15:46:20.630Z,14.70
2019-05-23T15:48:49.949Z,14.30
2019-05-23T15:51:23.245Z,13.90
2019-05-23T15:54:01.908Z,15.20
2019-05-23T15:56:48.528Z,14.80
2019-05-23T15:59:25.337Z,14.50
2019-05-23T16:02:01.899Z,15.10
2019-05-23T16:04:31.396Z,13.90
2019-05-23T16:07:00.761Z,14.30
2019-05-23T16:09:31.099Z,14.90
2019-05-23T16:12:00.899Z,14.00
2019-05-23T16:14:31.530Z,14.90
2019-05-23T16:17:01.098Z,13.20
2019-05-23T16:19:30.655Z,15.40
2019-05-23T16:21:59.962Z,14.80
2019-05-23T16:24:29.311Z,13.80
2019-05-23T16:26:58.728Z,13.90
2019-05-23T16:29:28.582Z,15.30
2019-05-23T16:31:58.498Z,13.80
2019-05-23T16:34:28.411Z,13.40
2019-05-23T16:36:57.624Z,14.10
2019-05-23T16:39:27.264Z,13.40
2019-05-23T16:41:56.887Z,13.00
2019-05-23T16:44:26.084Z,13.00
2019-05-23T16:46:55.328Z,14.00
2019-05-23T16:49:24.617Z,13.70
2019-05-23T16:51:53.972Z,14.20
2019-05-23T16:54:27.403Z,13.00
2019-05-23T16:57:14.443Z,13.10
2019-05-23T16:59:51.785Z,12.00
2019-05-23T17:02:43.240Z,14.10
2019-05-23T17:05:24.916Z,13.80
2019-05-23T17:08:13.287Z,14.50
2019-05-23T17:10:53.185Z,14.40
2019-05-23T17:13:29.031Z,14.20
2019-05-23T17:16:10.578Z,14.40
2019-05-23T17:18:48.850Z,16.00
2019-05-23T17:21:43.148Z,17.70
2019-05-23T17:24:28.839Z,16.30
2019-05-23T17:27:05.890Z,17.40
2019-05-23T17:29:53.302Z,18.40
2019-05-23T17:32:26.309Z,19.30
2019-05-23T17:34:56.141Z,17.90
2019-05-23T17:37:26.505Z,19.00
2019-05-23T17:39:56.068Z,18.70
2019-05-23T17:42:25.524Z,20.00
2019-05-23T17:44:54.804Z,21.60
2019-05-23T17:47:24.537Z,22.60
2019-05-23T17:49:54.094Z,21.70
2019-05-23T17:52:23.753Z,23.20
2019-05-23T17:54:53.353Z,23.30
2019-05-23T17:57:22.604Z,22.80
2019-05-23T17:59:51.912Z,24.90
2019-05-23T18:02:22.440Z,24.00
2019-05-23T18:04:52.100Z,23.10
2019-05-23T18:07:21.984Z,26.30
2019-05-23T18:09:51.893Z,27.20
2019-05-23T18:12:21.525Z,25.70
2019-05-23T18:14:51.156Z,25.60
2019-05-23T18:17:20.916Z,25.80
2019-05-23T18:19:50.936Z,28.90
2019-05-23T18:22:20.634Z,27.90
2019-05-23T18:24:49.953Z,29.70
2019-05-23T18:27:20.722Z,34.10
2019-05-23T18:29:50.677Z,31.60
2019-05-23T18:32:23.071Z,32.50
2019-05-23T18:34:53.203Z,37.70
2019-05-23T18:37:22.744Z,37.60
2019-05-23T18:39:52.401Z,41.10
2019-05-23T18:42:22.336Z,39.60
2019-05-23T18:44:51.625Z,39.80
2019-05-23T18:47:27.202Z,38.00
2019-05-23T18:49:56.758Z,39.10
2019-05-23T18:52:26.646Z,41.40
2019-05-23T18:54:55.897Z,39.10
2019-05-23T18:57:25.560Z,39.50
2019-05-23T18:59:54.772Z,43.10
2019-05-23T19:02:25.391Z,45.00
2019-05-23T19:04:55.274Z,45.70
2019-05-23T19:07:24.466Z,47.90
2019-05-23T19:09:53.720Z,48.20
2019-05-23T19:12:23.708Z,52.00
2019-05-23T19:14:53.260Z,54.00
2019-05-23T19:17:22.728Z,53.00
2019-05-23T19:19:52.668Z,54.00
2019-05-23T19:22:22.404Z,50.70
2019-05-23T19:24:51.589Z,53.00
2019-05-23T19:27:21.102Z,51.20
2019-05-23T19:29:50.347Z,50.90
2019-05-23T19:32:19.542Z,52.50
2019-05-23T19:34:48.887Z,53.90
2019-05-23T19:37:18.908Z,54.40
2019-05-23T19:39:48.501Z,55.00
2019-05-23T19:42:18.567Z,56.30
2019-05-23T19:44:47.956Z,57.60
2019-05-23T19:47:17.224Z,59.20
2019-05-23T19:49:46.868Z,61.90
2019-05-23T19:52:16.894Z,61.10
2019-05-23T19:54:46.554Z,62.50
2019-05-23T19:57:16.042Z,65.00
2019-05-23T19:59:45.664Z,64.10
2019-05-23T20:02:37.407Z,64.10
2019-05-23T20:05:14.260Z,63.40
2019-05-23T20:07:43.570Z,63.60
2019-05-23T20:10:15.209Z,65.10
2019-05-23T20:12:45.148Z,67.10
2019-05-23T20:15:14.954Z,69.80
2019-05-23T20:17:44.229Z,71.90
2019-05-23T20:20:13.870Z,72.10
2019-05-23T20:22:43.479Z,72.60
2019-05-23T20:25:14.137Z,74.20
2019-05-23T20:27:43.432Z,74.90
2019-05-23T20:30:16.930Z,73.90
2019-05-23T20:32:46.782Z,72.40
2019-05-23T20:35:16.207Z,72.70
2019-05-23T20:37:45.786Z,72.30
2019-05-23T20:40:15.313Z,70.80
2019-05-23T20:42:44.636Z,70.30
2019-05-23T20:45:14.238Z,69.30
2019-05-23T20:47:43.872Z,71.20
2019-05-23T20:50:13.424Z,73.70
2019-05-23T20:52:42.745Z,74.60
2019-05-23T20:55:12.391Z,72.10
2019-05-23T20:57:41.946Z,73.00
2019-05-23T21:00:13.059Z,74.50
2019-05-23T21:02:42.249Z,76.40
2019-05-23T21:05:11.730Z,77.70
2019-05-23T21:07:40.936Z,78.30
2019-05-23T21:10:12.003Z,78.70
2019-05-23T21:12:41.486Z,81.50
2019-05-23T21:15:10.694Z,82.80
2019-05-23T21:17:39.958Z,80.20
2019-05-23T21:20:09.148Z,80.60
2019-05-23T21:22:38.552Z,81.90
2019-05-23T21:25:07.936Z,82.10
2019-05-23T21:27:37.193Z,81.60
2019-05-23T21:30:07.047Z,81.50
2019-05-23T21:32:36.226Z,81.60
2019-05-23T21:35:06.236Z,82.40
2019-05-23T21:37:35.434Z,82.40
2019-05-23T21:40:05.105Z,84.60
2019-05-23T21:42:47.434Z,85.30
2019-05-23T21:45:05.717Z,84.10
2019-05-23T21:47:34.905Z,85.90
2019-05-23T21:50:05.073Z,86.50
2019-05-23T21:52:34.357Z,87.80
2019-05-23T21:55:04.006Z,88.70
2019-05-23T21:57:33.283Z,88.50
2019-05-23T22:00:02.617Z,88.60
2019-05-23T22:02:34.733Z,90.70
2019-05-23T22:05:12.348Z,91.70
2019-05-23T22:07:41.903Z,92.10
2019-05-23T22:10:11.562Z,93.40
2019-05-23T22:12:41.320Z,93.60
2019-05-23T22:15:12.409Z,93.60
2019-05-23T22:17:42.536Z,91.00
2019-05-23T22:20:12.091Z,92.50
2019-05-23T22:22:41.281Z,94.00
2019-05-23T22:25:13.713Z,95.20
2019-05-23T22:27:43.071Z,95.70
2019-05-23T22:30:13.983Z,97.40
2019-05-23T22:32:43.322Z,99.00
2019-05-23T22:35:16.327Z,98.60
2019-05-23T22:37:46.156Z,99.70
2019-05-23T22:40:15.698Z,99.90
2019-05-23T22:42:44.990Z,99.90
2019-05-23T22:45:16.756Z,99.90
2019-05-23T22:47:45.956Z,99.90
2019-05-23T22:50:16.038Z,99.90
2019-05-23T22:52:45.364Z,99.90
2019-05-23T22:55:14.550Z,99.90
2019-05-23T22:57:43.941Z,99.90
2019-05-23T23:00:16.259Z,99.90
2019-05-23T23:02:46.204Z,99.90
2019-05-23T23:05:15.645Z,99.90
2019-05-23T23:07:44.914Z,99.90
2019-05-23T23:10:14.585Z,99.90
2019-05-23T23:12:43.868Z,99.90
2019-05-23T23:15:13.327Z,99.90
2019-05-23T23:17:42.598Z,99.90
2019-05-23T23:20:12.181Z,99.90
2019-05-23T23:22:41.442Z,99.90
2019-05-23T23:25:10.985Z,99.90
2019-05-23T23:27:40.194Z,99.90
2019-05-23T23:30:11.586Z,99.90
2019-05-23T23:32:40.808Z,99.90
2019-05-23T23:35:10.533Z,99.90
2019-05-23T23:37:39.851Z,99.90
2019-05-23T23:40:09.958Z,99.90
2019-05-23T23:42:39.618Z,99.90
2019-05-23T23:45:27.101Z,99.90
2019-05-23T23:48:14.266Z,99.90
2019-05-23T23:51:20.125Z,99.90
2019-05-23T23:54:07.048Z,99.90
2019-05-23T23:56:54.372Z,99.90
2019-05-23T23:59:22.741Z,99.90
